Maple Ridge, Minnesota
Current Conditions -  °F | °C
As of 9:33 PM on Monday 20 Oct 2014 (Local Time) from KBJI Reporting Station
Clear Clear  
Wind Chill: 31°   Ceiling: Unl
Heat Index: 35°   Visibility: 10mi
Dew Point: 34°   Wind: 5mph
Humidity: 95%   Direction: 90°E
Pressure: 30.09"   Gusts: NA
Location:  47.7369°N, 94.9947°W
Report Text: KBJI 210233Z AUTO 09004KT 10SM CLR 02/01 A3009 RMK AO2 T00190012
Loading
Personal Weather Stations






























Interactive Weather Map
Tropical Storm Tracking
New forecast layout! Learn more

10-Day Weather Forecast

Advertisements
Track Severe Weather on mobile